createdAt,value
2022-11-16T00:01:30.597Z,2.38
2022-11-16T00:03:59.833Z,3.33
2022-11-16T00:06:28.618Z,4.50
2022-11-16T00:09:18.860Z,2.35
2022-11-16T00:11:46.279Z,2.13
2022-11-16T00:14:13.157Z,2.05
2022-11-16T00:16:40.173Z,1.70
2022-11-16T00:19:07.397Z,3.63
2022-11-16T00:21:34.810Z,2.63
2022-11-16T00:24:02.627Z,2.03
2022-11-16T00:26:29.699Z,3.35
2022-11-16T00:28:57.688Z,3.15
2022-11-16T00:31:25.153Z,2.20
2022-11-16T00:33:52.247Z,4.05
2022-11-16T00:36:19.498Z,3.53
2022-11-16T00:38:47.111Z,3.35
2022-11-16T00:41:14.339Z,2.20
2022-11-16T00:43:41.191Z,4.80
2022-11-16T00:46:09.538Z,4.35
2022-11-16T00:48:36.774Z,4.20
2022-11-16T00:51:04.278Z,2.00
2022-11-16T00:53:31.503Z,6.45
2022-11-16T00:55:58.551Z,2.33
2022-11-16T00:58:25.648Z,5.75
2022-11-16T01:01:08.430Z,2.00
2022-11-16T01:03:36.334Z,2.47
2022-11-16T01:06:05.623Z,2.45
2022-11-16T01:08:33.201Z,2.55
2022-11-16T01:11:20.728Z,2.25
2022-11-16T01:13:48.231Z,2.55
2022-11-16T01:16:16.676Z,2.72
2022-11-16T01:18:47.306Z,3.10
2022-11-16T01:21:14.196Z,2.15
2022-11-16T01:23:41.206Z,3.47
2022-11-16T01:26:08.536Z,1.92
2022-11-16T01:28:37.005Z,1.83
2022-11-16T01:31:04.709Z,1.55
2022-11-16T01:33:35.505Z,1.58
2022-11-16T01:36:02.433Z,1.88
2022-11-16T01:38:30.102Z,1.38
2022-11-16T01:40:57.915Z,1.38
2022-11-16T01:43:27.220Z,1.42
2022-11-16T01:46:00.576Z,1.73
2022-11-16T01:48:30.526Z,2.42
2022-11-16T01:50:58.459Z,3.50
2022-11-16T01:53:26.315Z,1.50
2022-11-16T01:55:56.182Z,2.70
2022-11-16T01:58:31.918Z,1.77
2022-11-16T02:01:09.480Z,1.60
2022-11-16T02:03:43.648Z,1.38
2022-11-16T02:06:26.486Z,1.83
2022-11-16T02:09:30.943Z,1.30
2022-11-16T02:12:41.851Z,1.77
2022-11-16T02:15:27.129Z,1.95
2022-11-16T02:18:16.012Z,1.55
2022-11-16T02:21:08.346Z,2.35
2022-11-16T02:23:47.058Z,1.38
2022-11-16T02:26:31.647Z,1.30
2022-11-16T02:29:43.582Z,1.40
2022-11-16T02:32:27.132Z,1.33
2022-11-16T02:35:02.834Z,1.50
2022-11-16T02:37:34.318Z,1.25
2022-11-16T02:40:03.975Z,1.70
2022-11-16T02:42:43.924Z,2.53
2022-11-16T02:45:17.367Z,2.72
2022-11-16T02:47:46.549Z,1.60
2022-11-16T02:50:21.288Z,3.67
2022-11-16T02:55:15.057Z,2.13
2022-11-16T02:57:48.117Z,1.50
2022-11-16T03:00:44.262Z,2.58
2022-11-16T03:03:22.423Z,1.88
2022-11-16T03:06:02.457Z,1.73
2022-11-16T03:08:35.211Z,1.40
2022-11-16T03:11:26.328Z,2.05
2022-11-16T03:17:56.287Z,2.25
2022-11-16T03:20:29.827Z,4.68
2022-11-16T03:23:03.268Z,2.47
2022-11-16T03:25:34.178Z,5.22
2022-11-16T03:28:34.332Z,3.22
2022-11-16T03:31:09.685Z,3.75
2022-11-16T03:33:58.259Z,3.20
2022-11-16T03:36:33.549Z,3.10
2022-11-16T03:39:06.526Z,3.00
2022-11-16T03:41:37.165Z,2.70
2022-11-16T03:44:04.943Z,2.60
2022-11-16T03:46:31.865Z,3.85
2022-11-16T03:49:00.779Z,1.95
2022-11-16T03:51:31.791Z,1.88
2022-11-16T03:53:58.635Z,2.22
2022-11-16T03:56:25.822Z,2.28
2022-11-16T03:58:53.354Z,2.28
2022-11-16T04:01:20.175Z,1.70
2022-11-16T04:03:48.440Z,4.70
2022-11-16T04:06:35.925Z,2.15
2022-11-16T04:09:21.527Z,2.25
2022-11-16T04:12:07.643Z,1.60
2022-11-16T04:14:54.890Z,1.90
2022-11-16T04:17:43.645Z,2.83
2022-11-16T04:20:32.444Z,2.63
2022-11-16T04:23:29.772Z,2.55
2022-11-16T04:25:57.070Z,1.85
2022-11-16T04:28:29.076Z,1.40
2022-11-16T04:31:21.680Z,3.45
2022-11-16T04:34:14.042Z,1.40
2022-11-16T04:37:04.742Z,1.23
2022-11-16T04:39:31.968Z,1.90
2022-11-16T04:42:19.164Z,1.45
2022-11-16T04:45:07.669Z,1.58
2022-11-16T04:47:41.447Z,1.42
2022-11-16T04:50:08.753Z,1.25
2022-11-16T04:52:35.853Z,1.42
2022-11-16T04:55:04.456Z,1.50
2022-11-16T04:57:31.273Z,1.77
2022-11-16T04:59:58.528Z,1.80
2022-11-16T05:02:25.413Z,1.70
2022-11-16T05:04:56.383Z,1.52
2022-11-16T05:07:24.630Z,1.73
2022-11-16T05:09:56.207Z,1.50
2022-11-16T05:12:27.769Z,1.70
2022-11-16T05:14:58.813Z,1.80
2022-11-16T05:17:28.481Z,1.60
2022-11-16T05:20:16.330Z,1.70
2022-11-16T05:22:57.757Z,2.08
2022-11-16T05:25:33.860Z,1.80
2022-11-16T05:28:04.981Z,1.90
2022-11-16T05:30:34.334Z,1.85
2022-11-16T05:33:03.128Z,1.95
2022-11-16T05:35:33.484Z,2.28
2022-11-16T05:38:00.945Z,2.05
2022-11-16T05:40:28.164Z,2.88
2022-11-16T05:42:59.000Z,2.20
2022-11-16T05:45:28.847Z,1.75
2022-11-16T05:47:57.924Z,2.90
2022-11-16T05:50:24.938Z,1.67
2022-11-16T05:53:04.490Z,1.83
2022-11-16T05:55:31.360Z,2.10
2022-11-16T05:57:58.166Z,1.90
2022-11-16T06:00:25.012Z,2.35
2022-11-16T06:02:53.587Z,2.22
2022-11-16T06:05:25.812Z,2.30
2022-11-16T06:07:54.006Z,2.35
2022-11-16T06:10:21.395Z,2.20
2022-11-16T06:12:50.407Z,2.35
2022-11-16T06:15:18.001Z,3.65
2022-11-16T06:17:44.973Z,3.15
2022-11-16T06:20:12.835Z,2.67
2022-11-16T06:22:40.450Z,2.25
2022-11-16T06:25:08.249Z,2.10
2022-11-16T06:27:40.488Z,2.40
2022-11-16T06:30:09.216Z,2.83
2022-11-16T06:32:36.360Z,1.90
2022-11-16T06:35:05.098Z,2.75
2022-11-16T06:37:32.963Z,2.05
2022-11-16T06:39:59.814Z,3.05
2022-11-16T06:42:27.724Z,2.10
2022-11-16T06:44:55.377Z,1.80
2022-11-16T06:47:27.170Z,2.33
2022-11-16T06:49:54.153Z,1.65
2022-11-16T06:52:22.993Z,1.70
2022-11-16T06:54:50.346Z,2.25
2022-11-16T06:57:17.755Z,1.80
2022-11-16T06:59:45.157Z,1.98
2022-11-16T07:02:12.739Z,2.30
2022-11-16T07:04:40.466Z,3.40
2022-11-16T07:07:07.355Z,1.90
2022-11-16T07:09:35.722Z,1.90
2022-11-16T07:12:04.101Z,1.80
2022-11-16T07:14:35.896Z,4.13
2022-11-16T07:17:09.296Z,2.05
2022-11-16T07:19:36.872Z,2.00
2022-11-16T07:22:04.366Z,2.70
2022-11-16T07:24:31.767Z,1.83
2022-11-16T07:26:58.886Z,2.13
2022-11-16T07:29:27.639Z,2.08
2022-11-16T07:32:13.305Z,2.17
2022-11-16T07:34:59.600Z,1.88
2022-11-16T07:37:27.571Z,2.17
2022-11-16T07:39:54.531Z,2.47
2022-11-16T07:42:22.545Z,4.00
2022-11-16T07:45:07.231Z,3.40
2022-11-16T07:47:38.773Z,3.05
2022-11-16T07:50:08.628Z,2.70
2022-11-16T07:52:35.730Z,4.95
2022-11-16T07:55:19.045Z,3.78
2022-11-16T07:57:53.060Z,3.72
2022-11-16T08:00:20.573Z,2.85
2022-11-16T08:02:57.069Z,3.20
2022-11-16T08:05:25.126Z,3.05
2022-11-16T08:07:51.990Z,3.33
2022-11-16T08:10:23.293Z,3.42
2022-11-16T08:12:50.496Z,3.30
2022-11-16T08:15:19.378Z,4.88
2022-11-16T08:17:46.212Z,3.05
2022-11-16T08:20:13.460Z,3.88
2022-11-16T08:22:41.132Z,3.22
2022-11-16T08:25:09.563Z,2.90
2022-11-16T08:27:38.260Z,2.65
2022-11-16T08:30:09.879Z,3.33
2022-11-16T08:32:38.746Z,3.25
2022-11-16T08:35:06.639Z,3.67
2022-11-16T08:37:34.455Z,5.55
2022-11-16T08:40:03.583Z,3.38
2022-11-16T08:42:33.001Z,4.30
2022-11-16T08:44:59.974Z,4.20
2022-11-16T08:47:26.926Z,4.53
2022-11-16T08:49:56.217Z,4.32
2022-11-16T08:52:26.272Z,6.47
2022-11-16T08:54:54.840Z,5.63
2022-11-16T08:57:21.887Z,3.58
2022-11-16T08:59:53.651Z,4.07
2022-11-16T09:02:25.387Z,4.22
2022-11-16T09:04:53.311Z,4.15
2022-11-16T09:07:21.036Z,4.82
2022-11-16T09:09:48.509Z,3.83
2022-11-16T09:12:15.534Z,3.85
2022-11-16T09:14:42.380Z,4.95
2022-11-16T09:17:10.446Z,5.30
2022-11-16T09:19:37.747Z,4.72
2022-11-16T09:22:04.815Z,4.93
2022-11-16T09:24:31.619Z,4.45
2022-11-16T09:27:01.580Z,5.80
2022-11-16T09:29:28.441Z,6.65
2022-11-16T09:31:55.965Z,6.05
2022-11-16T09:34:22.844Z,4.57
2022-11-16T09:36:49.626Z,4.07
2022-11-16T09:39:30.621Z,4.40
2022-11-16T09:42:08.351Z,5.10
2022-11-16T09:44:56.574Z,3.22
2022-11-16T09:47:54.054Z,4.35
2022-11-16T09:50:33.532Z,5.22
2022-11-16T09:53:25.897Z,3.92
2022-11-16T09:56:08.805Z,4.25
2022-11-16T09:58:53.079Z,3.42
2022-11-16T10:01:27.392Z,3.47
2022-11-16T10:06:54.719Z,4.00
2022-11-16T10:09:22.392Z,3.63
2022-11-16T10:11:53.783Z,3.25
2022-11-16T10:14:41.764Z,1.80
2022-11-16T10:17:27.160Z,3.50
2022-11-16T10:19:58.356Z,2.17
2022-11-16T10:22:25.324Z,8.55
2022-11-16T10:24:58.925Z,3.97
2022-11-16T10:27:48.683Z,2.20
2022-11-16T10:30:20.627Z,2.45
2022-11-16T10:32:53.482Z,5.80
2022-11-16T10:35:44.316Z,3.58
2022-11-16T10:38:17.392Z,1.85
2022-11-16T10:40:49.648Z,3.92
2022-11-16T10:43:17.769Z,4.30
2022-11-16T10:45:59.972Z,2.53
2022-11-16T10:48:51.480Z,4.40
2022-11-16T10:51:18.614Z,3.72
2022-11-16T10:53:45.574Z,5.55
2022-11-16T10:56:20.221Z,2.90
2022-11-16T10:59:01.949Z,1.85
2022-11-16T11:01:31.460Z,3.58
2022-11-16T11:04:12.192Z,3.05
2022-11-16T11:06:40.161Z,4.43
2022-11-16T11:09:31.741Z,2.92
2022-11-16T11:12:21.834Z,2.83
2022-11-16T11:14:58.795Z,2.47
2022-11-16T11:17:25.652Z,2.53
2022-11-16T11:20:06.358Z,3.33
2022-11-16T11:22:43.645Z,5.28
2022-11-16T11:25:41.447Z,2.22
2022-11-16T11:28:31.732Z,3.47
2022-11-16T11:31:09.393Z,4.50
2022-11-16T11:33:39.728Z,3.83
2022-11-16T11:36:08.515Z,3.22
2022-11-16T11:38:58.850Z,3.63
2022-11-16T11:41:33.906Z,3.90
2022-11-16T11:44:05.498Z,5.38
2022-11-16T11:47:18.204Z,2.65
2022-11-16T11:49:33.597Z,3.55
2022-11-16T11:52:10.566Z,1.85
2022-11-16T11:54:46.065Z,2.15
2022-11-16T11:57:22.199Z,5.95
2022-11-16T11:59:53.941Z,4.03
2022-11-16T12:03:19.345Z,5.30
2022-11-16T12:06:21.371Z,2.85
2022-11-16T12:09:27.051Z,3.83
2022-11-16T12:12:14.329Z,3.33
2022-11-16T12:15:06.318Z,2.30
2022-11-16T12:18:17.843Z,3.35
2022-11-16T12:20:56.875Z,4.47
2022-11-16T12:23:41.871Z,4.43
2022-11-16T12:26:27.286Z,3.50
2022-11-16T12:29:23.622Z,3.55
2022-11-16T12:32:08.985Z,3.10
2022-11-16T12:35:00.003Z,3.08
2022-11-16T12:37:33.091Z,4.18
2022-11-16T12:40:24.842Z,2.40
2022-11-16T12:43:13.117Z,2.85
2022-11-16T12:45:59.366Z,3.85
2022-11-16T12:48:32.082Z,3.08
2022-11-16T12:51:02.070Z,1.98
2022-11-16T12:53:48.876Z,3.63
2022-11-16T12:56:28.136Z,3.95
2022-11-16T12:59:13.662Z,3.00
2022-11-16T13:02:00.778Z,3.80
2022-11-16T13:04:35.982Z,2.30
2022-11-16T13:07:11.180Z,3.00
2022-11-16T13:09:44.536Z,5.10
2022-11-16T13:12:19.347Z,4.95
2022-11-16T13:14:52.872Z,5.00
2022-11-16T13:17:29.167Z,3.97
2022-11-16T13:20:24.833Z,3.70
2022-11-16T13:23:20.865Z,3.55
2022-11-16T13:26:03.788Z,2.33
2022-11-16T13:28:57.908Z,3.40
2022-11-16T13:31:46.556Z,3.70
2022-11-16T13:34:25.351Z,2.55
2022-11-16T13:36:52.170Z,4.53
2022-11-16T13:39:40.000Z,1.98
2022-11-16T13:42:12.196Z,3.03
2022-11-16T13:44:39.418Z,3.20
2022-11-16T13:47:17.696Z,3.45
2022-11-16T13:49:56.639Z,4.20
2022-11-16T13:52:31.715Z,2.25
2022-11-16T13:55:34.445Z,2.60
2022-11-16T13:58:04.036Z,2.97
2022-11-16T14:00:36.272Z,2.42
2022-11-16T14:03:12.295Z,3.85
2022-11-16T14:05:42.335Z,8.15
2022-11-16T14:08:24.313Z,2.33
2022-11-16T14:10:51.070Z,2.00
2022-11-16T14:13:30.385Z,2.80
2022-11-16T14:16:15.406Z,3.35
2022-11-16T14:18:50.483Z,3.95
2022-11-16T14:21:20.420Z,2.83
2022-11-16T14:24:05.982Z,3.00
2022-11-16T14:26:45.186Z,3.22
2022-11-16T14:29:45.401Z,4.22
2022-11-16T14:32:26.470Z,3.13
2022-11-16T14:34:58.908Z,4.18
2022-11-16T14:37:28.192Z,3.85
2022-11-16T14:40:14.010Z,3.50
2022-11-16T14:43:19.980Z,2.47
2022-11-16T14:45:52.948Z,3.70
2022-11-16T14:48:21.901Z,5.45
2022-11-16T14:51:02.068Z,2.00
2022-11-16T14:53:30.739Z,5.32
2022-11-16T14:56:12.263Z,4.60
2022-11-16T14:58:39.716Z,2.13
2022-11-16T15:01:13.061Z,3.13
2022-11-16T15:03:53.418Z,3.40
2022-11-16T15:06:21.237Z,2.35
2022-11-16T15:09:04.124Z,2.85
2022-11-16T15:11:56.600Z,2.35
2022-11-16T15:14:29.649Z,3.38
2022-11-16T15:16:57.762Z,1.80
2022-11-16T15:19:25.641Z,4.72
2022-11-16T15:21:58.331Z,2.17
2022-11-16T15:24:43.388Z,2.60
2022-11-16T15:27:42.238Z,2.28
2022-11-16T15:30:19.449Z,2.60
2022-11-16T15:32:48.723Z,1.55
2022-11-16T15:35:24.826Z,1.60
2022-11-16T15:38:15.274Z,2.92
2022-11-16T15:41:01.175Z,3.33
2022-11-16T15:43:33.804Z,3.22
2022-11-16T15:46:02.281Z,2.38
2022-11-16T15:48:31.411Z,2.10
2022-11-16T15:51:05.156Z,1.95
2022-11-16T15:53:39.585Z,3.65
2022-11-16T15:56:13.756Z,1.83
2022-11-16T15:58:42.189Z,1.63
2022-11-16T16:01:10.737Z,1.90
2022-11-16T16:03:38.570Z,4.45
2022-11-16T16:06:07.745Z,2.17
2022-11-16T16:08:39.300Z,2.58
2022-11-16T16:11:15.035Z,2.75
2022-11-16T16:13:44.659Z,3.45
2022-11-16T16:16:28.884Z,3.53
2022-11-16T16:19:05.177Z,5.53
2022-11-16T16:21:43.801Z,5.53
2022-11-16T16:24:48.671Z,1.80
2022-11-16T16:27:21.315Z,3.85
2022-11-16T16:29:50.379Z,6.30
2022-11-16T16:32:20.128Z,2.90
2022-11-16T16:34:46.980Z,3.15
2022-11-16T16:37:14.210Z,2.10
2022-11-16T16:39:42.130Z,2.05
2022-11-16T16:42:12.395Z,2.63
2022-11-16T16:44:40.182Z,2.50
2022-11-16T16:47:07.155Z,3.10
2022-11-16T16:49:34.353Z,2.95
2022-11-16T16:52:01.896Z,5.88
2022-11-16T16:54:28.839Z,5.85
2022-11-16T16:56:56.916Z,4.22
2022-11-16T16:59:24.823Z,3.75
2022-11-16T17:01:51.776Z,3.70
2022-11-16T17:04:19.050Z,2.65
2022-11-16T17:06:46.725Z,2.78
2022-11-16T17:09:14.148Z,2.88
2022-11-16T17:11:41.006Z,4.35
2022-11-16T17:14:08.102Z,4.70
2022-11-16T17:16:35.840Z,9.90
2022-11-16T17:19:04.034Z,8.90
2022-11-16T17:21:31.733Z,5.97
2022-11-16T17:23:58.530Z,4.57
2022-11-16T17:26:29.238Z,4.53
2022-11-16T17:28:57.655Z,5.35
2022-11-16T17:31:26.043Z,2.38
2022-11-16T17:33:53.085Z,4.70
2022-11-16T17:36:20.620Z,3.08
2022-11-16T17:38:47.440Z,3.63
2022-11-16T17:41:16.689Z,2.80
2022-11-16T17:43:45.315Z,4.22
2022-11-16T17:46:18.083Z,6.55
2022-11-16T17:48:47.156Z,5.65
2022-11-16T17:51:17.090Z,5.95
2022-11-16T17:53:44.327Z,3.88
2022-11-16T17:56:13.120Z,1.88
2022-11-16T17:58:40.337Z,3.50
2022-11-16T18:01:07.395Z,3.67
2022-11-16T18:03:38.533Z,4.60
2022-11-16T18:06:08.505Z,3.25
2022-11-16T18:08:36.355Z,4.82
2022-11-16T18:11:08.172Z,3.00
2022-11-16T18:13:35.689Z,3.78
2022-11-16T18:16:20.169Z,2.80
2022-11-16T18:18:48.286Z,3.17
2022-11-16T18:21:20.627Z,5.45
2022-11-16T18:23:47.880Z,2.63
2022-11-16T18:26:17.273Z,1.85
2022-11-16T18:28:48.459Z,3.25
2022-11-16T18:31:17.735Z,3.80
2022-11-16T18:33:45.239Z,3.38
2022-11-16T18:36:13.045Z,2.92
2022-11-16T18:38:39.922Z,2.13
2022-11-16T18:41:13.354Z,3.53
2022-11-16T18:43:50.357Z,5.00
2022-11-16T18:46:19.233Z,2.97
2022-11-16T18:48:46.846Z,4.22
2022-11-16T18:51:15.590Z,4.82
2022-11-16T18:53:42.908Z,8.50
2022-11-16T18:56:11.385Z,20.17
2022-11-16T18:58:54.086Z,22.45
2022-11-16T19:01:24.387Z,13.15
2022-11-16T19:03:52.622Z,12.27
2022-11-16T19:06:19.602Z,5.47
2022-11-16T19:08:55.135Z,5.15
2022-11-16T19:11:24.002Z,3.15
2022-11-16T19:13:57.784Z,1.40
2022-11-16T19:16:25.164Z,1.38
2022-11-16T19:18:52.785Z,2.97
2022-11-16T19:21:20.248Z,3.20
2022-11-16T19:23:52.807Z,1.67
2022-11-16T19:26:22.737Z,2.08
2022-11-16T19:28:51.129Z,1.65
2022-11-16T19:31:17.906Z,1.65
2022-11-16T19:33:45.191Z,1.15
2022-11-16T19:36:14.312Z,2.38
2022-11-16T19:38:41.755Z,2.92
2022-11-16T19:41:10.932Z,1.05
2022-11-16T19:43:38.136Z,2.22
2022-11-16T19:46:11.093Z,3.17
2022-11-16T19:48:38.576Z,2.47
2022-11-16T19:51:06.794Z,1.30
2022-11-16T19:53:34.811Z,2.10
2022-11-16T19:56:02.251Z,1.30
2022-11-16T19:58:29.116Z,4.28
2022-11-16T20:01:06.219Z,6.70
2022-11-16T20:03:34.282Z,2.28
2022-11-16T20:06:15.198Z,2.47
2022-11-16T20:08:46.099Z,3.42
2022-11-16T20:11:16.407Z,2.65
2022-11-16T20:13:43.902Z,2.65
2022-11-16T20:16:12.087Z,0.90
2022-11-16T20:18:40.676Z,0.93
2022-11-16T20:21:08.930Z,2.22
2022-11-16T20:23:36.319Z,2.80
2022-11-16T20:26:08.796Z,1.75
2022-11-16T20:28:37.400Z,3.97
2022-11-16T20:31:09.939Z,2.85
2022-11-16T20:33:37.165Z,1.17
2022-11-16T20:36:06.699Z,1.05
2022-11-16T20:38:34.547Z,1.77
2022-11-16T20:41:08.389Z,2.28
2022-11-16T20:43:35.609Z,2.20
2022-11-16T20:46:02.803Z,1.85
2022-11-16T20:48:29.623Z,3.65
2022-11-16T20:50:56.463Z,1.27
2022-11-16T20:53:23.613Z,1.80
2022-11-16T20:55:50.464Z,1.27
2022-11-16T20:58:22.470Z,1.55
2022-11-16T21:00:50.316Z,1.45
2022-11-16T21:03:17.367Z,1.48
2022-11-16T21:05:46.005Z,2.05
2022-11-16T21:08:13.216Z,0.95
2022-11-16T21:10:40.178Z,1.17
2022-11-16T21:13:33.942Z,3.80
2022-11-16T21:16:11.373Z,2.03
2022-11-16T21:18:39.458Z,2.60
2022-11-16T21:21:14.850Z,2.65
2022-11-16T21:23:44.934Z,2.22
2022-11-16T21:26:13.941Z,1.27
2022-11-16T21:28:41.593Z,2.53
2022-11-16T21:31:11.868Z,3.03
2022-11-16T21:33:39.235Z,2.55
2022-11-16T21:36:08.087Z,1.80
2022-11-16T21:38:34.906Z,2.38
2022-11-16T21:41:02.256Z,2.30
2022-11-16T21:43:29.142Z,2.67
2022-11-16T21:46:03.007Z,1.33
2022-11-16T21:48:32.939Z,1.80
2022-11-16T21:51:05.184Z,2.88
2022-11-16T21:53:32.770Z,3.00
2022-11-16T21:56:00.278Z,1.77
2022-11-16T21:58:27.121Z,3.65
2022-11-16T22:00:59.103Z,2.50
2022-11-16T22:03:30.851Z,1.50
2022-11-16T22:06:22.114Z,2.70
2022-11-16T22:08:49.484Z,4.38
2022-11-16T22:11:17.122Z,1.58
2022-11-16T22:13:44.065Z,2.97
2022-11-16T22:16:12.944Z,1.75
2022-11-16T22:18:40.008Z,1.73
2022-11-16T22:21:07.446Z,2.03
2022-11-16T22:23:35.917Z,1.63
2022-11-16T22:26:05.804Z,1.13
2022-11-16T22:28:33.692Z,2.05
2022-11-16T22:31:06.271Z,2.03
2022-11-16T22:33:34.038Z,1.42
2022-11-16T22:36:01.095Z,2.55
2022-11-16T22:38:28.098Z,2.20
2022-11-16T22:40:56.783Z,3.67
2022-11-16T22:43:26.353Z,3.95
2022-11-16T22:46:01.162Z,3.78
2022-11-16T22:48:38.107Z,4.22
2022-11-16T22:51:17.569Z,0.77
2022-11-16T22:53:44.610Z,4.70
2022-11-16T22:56:11.752Z,1.88
2022-11-16T22:58:39.460Z,1.70
2022-11-16T23:01:07.971Z,0.70
2022-11-16T23:03:35.720Z,1.27
2022-11-16T23:06:03.751Z,0.70
2022-11-16T23:08:30.767Z,2.10
2022-11-16T23:11:18.865Z,0.90
2022-11-16T23:14:04.326Z,2.50
2022-11-16T23:16:31.351Z,3.05
2022-11-16T23:18:58.212Z,0.82
2022-11-16T23:21:43.794Z,1.20
2022-11-16T23:24:33.443Z,2.42
2022-11-16T23:27:21.928Z,1.88
2022-11-16T23:29:48.961Z,2.22
2022-11-16T23:32:15.782Z,1.60
2022-11-16T23:34:42.600Z,2.20
2022-11-16T23:37:09.393Z,1.65
2022-11-16T23:39:36.195Z,1.08
2022-11-16T23:42:21.809Z,1.00
2022-11-16T23:44:48.637Z,1.80
2022-11-16T23:47:15.513Z,0.85
2022-11-16T23:49:42.282Z,1.45
2022-11-16T23:52:09.165Z,2.03
2022-11-16T23:54:36.019Z,2.55
2022-11-16T23:57:03.056Z,3.17
2022-11-16T23:59:30.111Z,2.80
